CheckWX is a tool to help pilots better visualize weather data.  It is not intended as a substitute for an official pre-flight weather briefing.

02:52:11 UTC

LRAR METAR
Arad International Airport
Arad, Romania
Current

22 mins ago

LRAR 210230Z 00000KT CAVOK 03/03 Q1027
Observed
Sep-21 @ 02:30 UTC
Visibility
10,000+ meters
Flight Rules
VFR
Cloud Levels
  • Clear skies
Temperature
C / 37°F
Dewpoint
C / 37°F
Humidity
100%
Altimeter
30.32" Hg
Pressure
1026.92 hPa
Previous

52 mins ago

LRAR 210200Z VRB01KT CAVOK 05/03 Q1027
Observed
Sep-21 @ 02:00 UTC
Wind
  • Variable at 1 KTS
Visibility
10,000+ meters
Flight Rules
VFR
Cloud Levels
  • Clear skies
Temperature
C / 41°F
Dewpoint
C / 37°F
Humidity
87%
Altimeter
30.32" Hg
Pressure
1026.92 hPa
Previous

1 hour ago

LRAR 210130Z VRB02KT CAVOK 05/04 Q1027
Observed
Sep-21 @ 01:30 UTC
Wind
  • Variable at 2 KTS
Visibility
10,000+ meters
Flight Rules
VFR
Cloud Levels
  • Clear skies
Temperature
C / 41°F
Dewpoint
C / 39°F
Humidity
93%
Altimeter
30.32" Hg
Pressure
1026.92 hPa